createdAt,value
2017-07-20T00:00:26.804Z,10.10
2017-07-20T00:02:54.366Z,10.10
2017-07-20T00:05:21.930Z,12.23
2017-07-20T00:07:49.490Z,10.43
2017-07-20T00:10:17.022Z,12.03
2017-07-20T00:12:44.602Z,11.60
2017-07-20T00:15:12.182Z,11.77
2017-07-20T00:17:39.831Z,12.83
2017-07-20T00:20:07.390Z,12.77
2017-07-20T00:22:34.927Z,11.63
2017-07-20T00:25:02.458Z,13.17
2017-07-20T00:27:30.898Z,14.43
2017-07-20T00:29:58.462Z,14.33
2017-07-20T00:32:26.010Z,14.50
2017-07-20T00:34:53.574Z,14.60
2017-07-20T00:37:21.229Z,14.43
2017-07-20T00:39:48.798Z,14.70
2017-07-20T00:42:16.330Z,15.77
2017-07-20T00:44:43.869Z,16.97
2017-07-20T00:47:12.202Z,16.27
2017-07-20T00:49:39.753Z,17.40
2017-07-20T00:52:07.328Z,18.70
2017-07-20T00:54:34.866Z,20.57
2017-07-20T00:57:02.423Z,20.00
2017-07-20T00:59:29.981Z,23.50
2017-07-20T01:01:57.526Z,21.73
2017-07-20T01:04:25.106Z,19.80
2017-07-20T01:06:52.699Z,23.20
2017-07-20T01:09:20.340Z,21.03
2017-07-20T01:11:47.907Z,21.67
2017-07-20T01:14:15.566Z,20.57
2017-07-20T01:16:43.103Z,20.57
2017-07-20T01:19:10.664Z,21.60
2017-07-20T01:21:38.255Z,18.53
2017-07-20T01:24:05.919Z,20.77
2017-07-20T01:26:33.457Z,20.27
2017-07-20T01:29:01.032Z,19.00
2017-07-20T01:31:28.574Z,18.77
2017-07-20T01:33:56.167Z,18.60
2017-07-20T01:36:23.701Z,19.67
2017-07-20T01:38:51.230Z,19.20
2017-07-20T01:41:19.531Z,18.47
2017-07-20T01:43:47.089Z,18.10
2017-07-20T01:46:14.679Z,15.93
2017-07-20T01:48:42.218Z,17.53
2017-07-20T01:51:09.765Z,16.70
2017-07-20T01:53:38.062Z,15.70
2017-07-20T01:56:05.647Z,17.03
2017-07-20T01:58:33.203Z,17.40
2017-07-20T02:01:00.964Z,16.40
2017-07-20T02:03:28.635Z,17.00
2017-07-20T02:05:56.199Z,19.37
2017-07-20T02:08:23.764Z,14.60
2017-07-20T02:10:51.414Z,14.87
2017-07-20T02:13:18.958Z,14.20
2017-07-20T02:15:46.630Z,15.17
2017-07-20T02:18:14.173Z,13.83
2017-07-20T02:20:41.762Z,14.03
2017-07-20T02:23:09.318Z,14.70
2017-07-20T02:25:36.987Z,15.13
2017-07-20T02:28:04.526Z,14.73
2017-07-20T02:33:25.379Z,13.57
2017-07-20T02:35:53.040Z,14.07
2017-07-20T02:38:20.578Z,14.80
2017-07-20T02:40:48.158Z,14.07
2017-07-20T02:43:15.715Z,13.03
2017-07-20T02:45:43.283Z,13.53
2017-07-20T02:48:10.823Z,12.47
2017-07-20T02:50:38.404Z,12.43
2017-07-20T02:53:05.962Z,11.67
2017-07-20T02:55:33.528Z,11.27
2017-07-20T02:58:01.064Z,11.37
2017-07-20T03:00:28.618Z,11.57
2017-07-20T03:02:56.206Z,11.00
2017-07-20T03:05:23.779Z,10.90
2017-07-20T03:07:51.430Z,11.13
2017-07-20T03:10:19.090Z,11.60
2017-07-20T03:12:46.649Z,11.73
2017-07-20T03:15:14.314Z,11.30
2017-07-20T03:17:41.850Z,11.50
2017-07-20T03:20:09.433Z,10.57
2017-07-20T03:22:45.997Z,10.57
2017-07-20T03:25:13.536Z,11.40
2017-07-20T03:27:41.071Z,12.50
2017-07-20T03:30:09.393Z,15.13
2017-07-20T03:32:36.960Z,10.93
2017-07-20T03:35:04.499Z,10.23
2017-07-20T03:37:32.035Z,11.33
2017-07-20T03:40:00.389Z,11.40
2017-07-20T03:42:28.029Z,12.67
2017-07-20T03:44:55.590Z,10.63
2017-07-20T03:47:23.146Z,12.43
2017-07-20T03:49:50.692Z,12.70
2017-07-20T03:52:18.225Z,11.40
2017-07-20T03:54:46.573Z,13.27
2017-07-20T03:57:14.212Z,13.97
2017-07-20T03:59:41.886Z,14.03
2017-07-20T04:02:09.445Z,13.27
2017-07-20T04:04:36.999Z,12.27
2017-07-20T04:07:04.567Z,15.27
2017-07-20T04:09:32.130Z,14.77
2017-07-20T04:11:59.662Z,13.33
2017-07-20T04:14:27.250Z,14.33
2017-07-20T04:16:54.797Z,12.53
2017-07-20T04:19:22.570Z,13.57
2017-07-20T04:21:50.229Z,12.70
2017-07-20T04:24:17.789Z,13.30
2017-07-20T04:26:45.346Z,13.27
2017-07-20T04:29:12.918Z,13.47
2017-07-20T04:31:40.457Z,12.73
2017-07-20T04:34:08.034Z,13.43
2017-07-20T04:36:35.591Z,12.80
2017-07-20T04:39:03.134Z,12.13
2017-07-20T04:41:30.690Z,11.63
2017-07-20T04:43:58.228Z,12.67
2017-07-20T04:46:26.562Z,11.80
2017-07-20T04:48:54.114Z,10.60
2017-07-20T04:51:21.779Z,11.43
2017-07-20T04:53:49.310Z,12.17
2017-07-20T04:56:16.912Z,9.70
2017-07-20T04:58:44.462Z,11.67
2017-07-20T05:01:11.999Z,12.93
2017-07-20T05:03:39.582Z,13.10
2017-07-20T05:06:07.127Z,17.60
2017-07-20T05:08:34.706Z,13.30
2017-07-20T05:11:02.268Z,11.00
2017-07-20T05:13:29.817Z,12.37
2017-07-20T05:15:57.359Z,11.17
2017-07-20T05:18:24.958Z,11.17
2017-07-20T05:20:52.510Z,10.10
2017-07-20T05:23:20.042Z,11.77
2017-07-20T05:25:47.583Z,12.90
2017-07-20T05:28:15.914Z,10.50
2017-07-20T05:30:43.447Z,10.80
2017-07-20T05:33:10.974Z,9.80
2017-07-20T05:35:39.308Z,12.33
2017-07-20T05:38:06.850Z,12.27
2017-07-20T05:40:34.386Z,14.77
2017-07-20T05:43:03.118Z,10.93
2017-07-20T05:45:30.650Z,11.60
2017-07-20T05:47:58.239Z,11.20
2017-07-20T05:50:25.898Z,10.60
2017-07-20T05:52:53.461Z,10.80
2017-07-20T05:55:21.031Z,10.47
2017-07-20T05:57:48.683Z,9.40
2017-07-20T06:00:16.223Z,9.60
2017-07-20T06:02:43.806Z,8.77
2017-07-20T06:05:11.379Z,8.70
2017-07-20T06:07:39.026Z,7.40
2017-07-20T06:10:06.562Z,8.07
2017-07-20T06:12:34.118Z,7.90
2017-07-20T06:15:01.659Z,9.20
2017-07-20T06:17:30.094Z,7.83
2017-07-20T06:19:57.622Z,7.93
2017-07-20T06:22:25.186Z,8.07
2017-07-20T06:24:52.733Z,8.17
2017-07-20T06:27:21.061Z,7.80
2017-07-20T06:29:48.623Z,8.30
2017-07-20T06:32:16.174Z,7.63
2017-07-20T06:34:43.706Z,8.20
2017-07-20T06:37:11.234Z,9.63
2017-07-20T06:39:38.782Z,7.80
2017-07-20T06:42:06.422Z,8.43
2017-07-20T06:44:33.971Z,8.70
2017-07-20T06:47:01.642Z,7.40
2017-07-20T06:49:29.183Z,8.37
2017-07-20T06:51:56.763Z,7.63
2017-07-20T06:54:24.298Z,8.30
2017-07-20T06:57:04.530Z,7.80
2017-07-20T06:59:32.877Z,7.30
2017-07-20T07:02:00.423Z,8.57
2017-07-20T07:04:28.090Z,9.70
2017-07-20T07:06:55.632Z,8.20
2017-07-20T07:09:23.201Z,7.80
2017-07-20T07:11:50.767Z,7.27
2017-07-20T07:14:18.330Z,7.70
2017-07-20T07:16:45.894Z,8.00
2017-07-20T07:19:13.551Z,7.50
2017-07-20T07:21:41.105Z,9.10
2017-07-20T07:24:08.680Z,7.40
2017-07-20T07:26:36.225Z,8.37
2017-07-20T07:29:03.793Z,11.23
2017-07-20T07:31:31.325Z,8.57
2017-07-20T07:33:58.915Z,7.70
2017-07-20T07:36:26.448Z,7.00
2017-07-20T07:38:54.037Z,11.17
2017-07-20T07:41:21.598Z,7.77
2017-07-20T07:43:49.263Z,6.80
2017-07-20T07:46:16.820Z,7.80
2017-07-20T07:48:44.391Z,7.30
2017-07-20T07:51:11.927Z,8.10
2017-07-20T07:53:39.515Z,8.00
2017-07-20T07:56:07.060Z,7.43
2017-07-20T07:58:34.634Z,7.53
2017-07-20T08:01:02.194Z,6.97
2017-07-20T08:03:29.755Z,7.40
2017-07-20T08:05:57.312Z,7.57
2017-07-20T08:08:24.851Z,7.03
2017-07-20T08:10:52.428Z,7.27
2017-07-20T08:13:19.998Z,7.30
2017-07-20T08:15:47.571Z,7.43
2017-07-20T08:18:15.107Z,6.43
2017-07-20T08:20:42.667Z,6.63
2017-07-20T08:23:10.242Z,6.83
2017-07-20T08:25:37.795Z,6.70
2017-07-20T08:28:05.322Z,5.93
2017-07-20T08:30:32.910Z,6.87
2017-07-20T08:33:00.446Z,6.50
2017-07-20T08:35:28.043Z,6.20
2017-07-20T08:37:55.573Z,5.83
2017-07-20T08:40:23.167Z,7.53
2017-07-20T08:42:50.712Z,6.07
2017-07-20T08:45:18.289Z,6.40
2017-07-20T08:47:45.937Z,6.40
2017-07-20T08:50:13.508Z,6.40
2017-07-20T08:52:41.050Z,7.00
2017-07-20T08:55:08.621Z,5.87
2017-07-20T08:57:36.194Z,6.60
2017-07-20T09:00:03.851Z,5.70
2017-07-20T09:02:31.419Z,6.40
2017-07-20T09:04:59.074Z,7.07
2017-07-20T09:07:26.601Z,6.07
2017-07-20T09:09:54.198Z,6.73
2017-07-20T09:12:21.749Z,5.50
2017-07-20T09:14:53.015Z,5.90
2017-07-20T09:17:20.573Z,6.27
2017-07-20T09:19:48.105Z,5.70
2017-07-20T09:22:15.645Z,5.90
2017-07-20T09:24:44.067Z,6.07
2017-07-20T09:27:11.607Z,5.77
2017-07-20T09:29:39.218Z,6.97
2017-07-20T09:32:06.750Z,6.33
2017-07-20T09:34:34.311Z,6.67
2017-07-20T09:37:01.878Z,6.50
2017-07-20T09:39:29.406Z,8.60
2017-07-20T09:41:56.999Z,9.60
2017-07-20T09:44:24.543Z,9.70
2017-07-20T09:46:52.066Z,7.60
2017-07-20T09:49:20.367Z,7.30
2017-07-20T09:51:47.951Z,6.20
2017-07-20T09:54:15.482Z,7.50
2017-07-20T09:56:43.015Z,6.43
2017-07-20T09:59:10.630Z,7.67
2017-07-20T10:01:38.174Z,6.80
2017-07-20T10:04:05.709Z,7.30
2017-07-20T10:06:33.997Z,6.43
2017-07-20T10:09:02.292Z,6.23
2017-07-20T10:11:29.879Z,6.40
2017-07-20T10:13:57.432Z,7.07
2017-07-20T10:16:24.994Z,7.00
2017-07-20T10:18:52.556Z,6.83
2017-07-20T10:21:20.118Z,7.60
2017-07-20T10:23:47.654Z,6.63
2017-07-20T10:26:15.238Z,8.00
2017-07-20T10:28:42.808Z,7.73
2017-07-20T10:31:10.367Z,7.93
2017-07-20T10:33:37.933Z,8.03
2017-07-20T10:36:06.402Z,7.43
2017-07-20T10:38:33.970Z,7.17
2017-07-20T10:41:01.530Z,7.20
2017-07-20T10:43:29.062Z,7.00
2017-07-20T10:45:56.645Z,7.83
2017-07-20T10:48:24.219Z,8.00
2017-07-20T10:50:51.778Z,6.70
2017-07-20T10:53:19.325Z,7.93
2017-07-20T10:55:46.990Z,6.50
2017-07-20T10:58:14.559Z,7.37
2017-07-20T11:00:42.113Z,9.70
2017-07-20T11:03:09.674Z,7.60
2017-07-20T11:05:37.211Z,7.47
2017-07-20T11:08:04.819Z,7.17
2017-07-20T11:10:32.454Z,8.30
2017-07-20T11:12:59.981Z,6.80
2017-07-20T11:15:28.301Z,8.00
2017-07-20T11:17:55.854Z,7.83
2017-07-20T11:20:23.418Z,6.87
2017-07-20T11:22:50.979Z,6.70
2017-07-20T11:25:18.514Z,7.13
2017-07-20T11:27:46.097Z,7.37
2017-07-20T11:30:13.660Z,6.27
2017-07-20T11:32:41.190Z,6.50
2017-07-20T11:35:08.722Z,6.20
2017-07-20T11:37:36.366Z,6.27
2017-07-20T11:40:04.013Z,6.40
2017-07-20T11:42:31.561Z,6.03
2017-07-20T11:44:59.127Z,6.60
2017-07-20T11:47:26.690Z,6.17
2017-07-20T11:49:54.262Z,6.37
2017-07-20T11:52:21.914Z,5.67
2017-07-20T11:54:49.482Z,6.07
2017-07-20T11:57:17.042Z,6.40
2017-07-20T11:59:44.577Z,6.77
2017-07-20T12:02:12.154Z,6.40
2017-07-20T12:04:39.719Z,5.83
2017-07-20T12:07:07.378Z,6.53
2017-07-20T12:09:34.933Z,5.53
2017-07-20T12:12:02.498Z,5.73
2017-07-20T12:14:30.058Z,5.80
2017-07-20T12:16:57.723Z,6.47
2017-07-20T12:19:25.255Z,6.03
2017-07-20T12:21:52.841Z,5.87
2017-07-20T12:24:20.410Z,6.23
2017-07-20T12:26:47.970Z,5.30
2017-07-20T12:29:15.529Z,5.53
2017-07-20T12:31:43.058Z,6.00
2017-07-20T12:34:10.650Z,5.77
2017-07-20T12:36:38.214Z,6.30
2017-07-20T12:39:05.769Z,5.80
2017-07-20T12:41:33.343Z,5.50
2017-07-20T12:44:00.898Z,5.43
2017-07-20T12:46:28.454Z,6.20
2017-07-20T12:48:56.010Z,6.23
2017-07-20T12:51:23.569Z,6.40
2017-07-20T12:53:51.134Z,5.90
2017-07-20T12:56:18.666Z,5.90
2017-07-20T12:58:46.263Z,6.00
2017-07-20T13:01:13.819Z,6.50
2017-07-20T13:03:41.373Z,6.87
2017-07-20T13:06:08.939Z,6.27
2017-07-20T13:08:36.603Z,6.63
2017-07-20T13:11:04.134Z,6.27
2017-07-20T13:13:31.690Z,6.43
2017-07-20T13:16:00.010Z,7.07
2017-07-20T13:18:27.670Z,7.13
2017-07-20T13:20:55.203Z,6.80
2017-07-20T13:23:22.790Z,7.10
2017-07-20T13:25:50.353Z,7.30
2017-07-20T13:28:18.009Z,7.03
2017-07-20T13:30:45.565Z,6.57
2017-07-20T13:33:13.134Z,7.13
2017-07-20T13:35:40.694Z,6.20
2017-07-20T13:38:08.221Z,6.40
2017-07-20T13:40:35.757Z,6.80
2017-07-20T13:43:03.383Z,6.30
2017-07-20T13:45:30.939Z,7.20
2017-07-20T13:47:58.467Z,7.50
2017-07-20T13:50:26.066Z,7.70
2017-07-20T13:52:53.614Z,8.10
2017-07-20T13:55:21.146Z,7.90
2017-07-20T13:57:48.744Z,7.73
2017-07-20T14:00:16.398Z,8.30
2017-07-20T14:02:43.978Z,8.67
2017-07-20T14:05:11.632Z,8.10
2017-07-20T14:07:39.161Z,7.90
2017-07-20T14:10:06.722Z,8.57
2017-07-20T14:12:34.314Z,8.30
2017-07-20T14:15:01.982Z,7.73
2017-07-20T14:17:29.514Z,8.77
2017-07-20T14:19:57.093Z,8.63
2017-07-20T14:22:24.621Z,9.33
2017-07-20T14:24:52.947Z,8.80
2017-07-20T14:27:20.489Z,8.90
2017-07-20T14:29:48.062Z,10.20
2017-07-20T14:32:15.594Z,8.47
2017-07-20T14:34:43.150Z,7.90
2017-07-20T14:37:10.678Z,8.83
2017-07-20T14:39:38.299Z,9.50
2017-07-20T14:42:05.869Z,8.27
2017-07-20T14:44:33.522Z,8.93
2017-07-20T14:47:01.054Z,8.57
2017-07-20T14:49:28.614Z,8.13
2017-07-20T14:51:56.210Z,8.23
2017-07-20T14:54:23.742Z,8.30
2017-07-20T14:56:51.334Z,8.87
2017-07-20T14:59:18.896Z,8.60
2017-07-20T15:01:46.427Z,8.57
2017-07-20T15:04:14.005Z,7.90
2017-07-20T15:06:41.570Z,8.50
2017-07-20T15:09:09.092Z,7.17
2017-07-20T15:11:37.510Z,8.20
2017-07-20T15:14:05.075Z,7.47
2017-07-20T15:16:32.738Z,7.70
2017-07-20T15:19:00.294Z,7.20
2017-07-20T15:21:27.966Z,8.27
2017-07-20T15:23:56.214Z,7.50
2017-07-20T15:26:23.741Z,7.37
2017-07-20T15:28:51.354Z,7.20
2017-07-20T15:31:18.913Z,6.63
2017-07-20T15:33:46.442Z,6.30
2017-07-20T15:36:14.734Z,6.77
2017-07-20T15:38:42.310Z,6.90
2017-07-20T15:41:09.879Z,6.10
2017-07-20T15:43:37.442Z,6.57
2017-07-20T15:46:05.006Z,6.70
2017-07-20T15:48:32.538Z,6.70
2017-07-20T15:51:00.229Z,6.50
2017-07-20T15:53:27.777Z,6.97
2017-07-20T15:55:55.366Z,7.17
2017-07-20T15:58:22.902Z,6.40
2017-07-20T16:00:50.459Z,6.10
2017-07-20T16:03:18.039Z,6.50
2017-07-20T16:05:45.685Z,6.00
2017-07-20T16:08:13.250Z,6.00
2017-07-20T16:10:40.774Z,6.17
2017-07-20T16:13:09.081Z,7.13
2017-07-20T16:15:36.650Z,6.73
2017-07-20T16:18:04.205Z,6.03
2017-07-20T16:20:31.765Z,6.43
2017-07-20T16:22:59.294Z,5.10
2017-07-20T16:25:26.891Z,5.87
2017-07-20T16:27:54.549Z,5.70
2017-07-20T16:30:22.127Z,5.50
2017-07-20T16:32:49.650Z,5.90
2017-07-20T16:35:17.242Z,4.90
2017-07-20T16:37:44.782Z,6.00
2017-07-20T16:40:12.383Z,6.07
2017-07-20T16:42:40.022Z,5.63
2017-07-20T16:45:07.578Z,5.30
2017-07-20T16:47:35.128Z,4.87
2017-07-20T16:50:02.738Z,4.30
2017-07-20T16:52:30.774Z,4.33
2017-07-20T16:54:58.338Z,4.30
2017-07-20T16:57:25.866Z,4.57
2017-07-20T16:59:53.466Z,3.30
2017-07-20T17:02:21.050Z,4.13
2017-07-20T17:04:48.692Z,3.97
2017-07-20T17:07:16.275Z,4.10
2017-07-20T17:09:43.899Z,4.10
2017-07-20T17:12:11.460Z,4.27
2017-07-20T17:14:39.030Z,4.97
2017-07-20T17:17:06.691Z,4.30
2017-07-20T17:19:34.261Z,4.60
2017-07-20T17:22:01.923Z,4.60
2017-07-20T17:24:32.857Z,4.00
2017-07-20T17:27:00.522Z,4.30
2017-07-20T17:29:28.078Z,3.90
2017-07-20T17:31:55.638Z,4.60
2017-07-20T17:34:23.205Z,4.10
2017-07-20T17:36:50.730Z,4.00
2017-07-20T17:39:18.266Z,4.17
2017-07-20T17:41:45.809Z,3.87
2017-07-20T17:44:13.444Z,4.10
2017-07-20T17:46:41.102Z,3.47
2017-07-20T17:49:08.674Z,4.10
2017-07-20T17:51:36.202Z,3.70
2017-07-20T17:54:03.786Z,4.40
2017-07-20T17:56:31.307Z,3.50
2017-07-20T17:58:59.605Z,4.90
2017-07-20T18:01:27.141Z,3.93
2017-07-20T18:03:55.466Z,3.93
2017-07-20T18:06:23.034Z,4.30
2017-07-20T18:08:50.597Z,3.87
2017-07-20T18:11:18.145Z,4.00
2017-07-20T18:13:45.710Z,4.13
2017-07-20T18:16:13.383Z,4.87
2017-07-20T18:18:41.033Z,4.60
2017-07-20T18:21:08.670Z,4.27
2017-07-20T18:23:36.265Z,5.00
2017-07-20T18:26:03.801Z,4.10
2017-07-20T18:28:31.360Z,4.23
2017-07-20T18:30:58.950Z,4.50
2017-07-20T18:33:26.606Z,3.93
2017-07-20T18:35:54.167Z,4.60
2017-07-20T18:38:21.745Z,4.70
2017-07-20T18:40:49.291Z,4.37
2017-07-20T18:43:16.949Z,4.10
2017-07-20T18:45:44.469Z,3.60
2017-07-20T18:48:12.785Z,4.33
2017-07-20T18:50:40.446Z,5.27
2017-07-20T18:53:08.010Z,4.00
2017-07-20T18:55:35.548Z,4.07
2017-07-20T18:58:03.073Z,8.40
2017-07-20T19:00:30.795Z,5.70
2017-07-20T19:02:58.331Z,7.03
2017-07-20T19:05:25.866Z,5.80
2017-07-20T19:07:54.294Z,4.00
2017-07-20T19:10:21.826Z,4.80
2017-07-20T19:12:50.138Z,4.30
2017-07-20T19:15:17.697Z,4.10
2017-07-20T19:17:45.230Z,3.97
2017-07-20T19:20:12.793Z,3.47
2017-07-20T19:22:40.325Z,4.20
2017-07-20T19:25:07.896Z,4.17
2017-07-20T19:27:36.195Z,4.20
2017-07-20T19:30:03.774Z,4.20
2017-07-20T19:32:31.343Z,4.47
2017-07-20T19:34:59.014Z,4.40
2017-07-20T19:37:26.574Z,4.40
2017-07-20T19:39:54.226Z,4.10
2017-07-20T19:42:21.786Z,4.53
2017-07-20T19:44:49.363Z,4.93
2017-07-20T19:47:16.899Z,4.77
2017-07-20T19:49:44.445Z,4.60
2017-07-20T19:52:11.976Z,4.30
2017-07-20T19:54:39.543Z,4.10
2017-07-20T19:57:07.847Z,4.47
2017-07-20T19:59:35.434Z,4.03
2017-07-20T20:02:02.964Z,4.50
2017-07-20T20:04:30.554Z,4.80
2017-07-20T20:06:58.118Z,4.70
2017-07-20T20:09:25.801Z,5.53
2017-07-20T20:11:53.347Z,4.97
2017-07-20T20:14:20.873Z,4.83
2017-07-20T20:16:48.410Z,5.03
2017-07-20T20:19:16.738Z,5.63
2017-07-20T20:21:44.296Z,5.07
2017-07-20T20:24:11.825Z,5.13
2017-07-20T20:26:39.368Z,5.30
2017-07-20T20:29:07.665Z,5.27
2017-07-20T20:31:35.217Z,4.87
2017-07-20T20:34:03.517Z,5.43
2017-07-20T20:36:31.071Z,4.77
2017-07-20T20:38:58.659Z,5.13
2017-07-20T20:41:26.223Z,5.10
2017-07-20T20:43:53.876Z,4.87
2017-07-20T20:46:21.435Z,5.03
2017-07-20T20:48:48.957Z,5.23
2017-07-20T20:51:17.377Z,5.33
2017-07-20T20:53:44.948Z,30.40
2017-07-20T20:56:12.510Z,136.97
2017-07-20T20:58:40.074Z,350.67
2017-07-20T21:01:07.642Z,428.70
2017-07-20T21:03:35.186Z,525.70
2017-07-20T21:06:02.851Z,450.37
2017-07-20T21:08:30.527Z,381.13
2017-07-20T21:10:58.186Z,301.10
2017-07-20T21:13:25.735Z,307.37
2017-07-20T21:15:53.302Z,291.43
2017-07-20T21:18:20.866Z,165.00
2017-07-20T21:20:48.431Z,140.03
2017-07-20T21:23:15.976Z,144.97
2017-07-20T21:25:43.650Z,131.37
2017-07-20T21:28:11.210Z,153.87
2017-07-20T21:30:38.896Z,138.00
2017-07-20T21:33:06.433Z,117.63
2017-07-20T21:35:34.106Z,109.47
2017-07-20T21:38:01.659Z,96.20
2017-07-20T21:40:29.198Z,97.13
2017-07-20T21:42:56.782Z,68.33
2017-07-20T21:45:24.351Z,57.37
2017-07-20T21:47:52.001Z,55.17
2017-07-20T21:50:19.567Z,52.07
2017-07-20T21:52:47.217Z,42.50
2017-07-20T21:55:14.785Z,44.30
2017-07-20T21:57:42.339Z,37.27
2017-07-20T22:00:09.870Z,36.73
2017-07-20T22:02:37.414Z,26.93
2017-07-20T22:05:05.747Z,24.60
2017-07-20T22:07:33.301Z,24.90
2017-07-20T22:10:00.834Z,22.53
2017-07-20T22:12:28.438Z,18.43
2017-07-20T22:14:55.976Z,10.40
2017-07-20T22:17:23.549Z,7.03
2017-07-20T22:19:51.086Z,6.57
2017-07-20T22:22:18.679Z,6.50
2017-07-20T22:24:46.230Z,4.93
2017-07-20T22:27:13.794Z,5.37
2017-07-20T22:29:41.349Z,5.47
2017-07-20T22:32:08.910Z,5.20
2017-07-20T22:34:36.477Z,4.70
2017-07-20T22:37:04.140Z,4.63
2017-07-20T22:39:31.670Z,5.60
2017-07-20T22:41:59.203Z,4.60
2017-07-20T22:44:26.737Z,5.50
2017-07-20T22:46:54.279Z,4.80
2017-07-20T22:52:15.041Z,5.63
2017-07-20T22:54:42.663Z,4.60
2017-07-20T22:57:10.219Z,4.57
2017-07-20T22:59:37.781Z,4.17
2017-07-20T23:02:05.342Z,4.33
2017-07-20T23:04:32.901Z,4.73
2017-07-20T23:07:00.475Z,4.00
2017-07-20T23:09:28.038Z,4.27
2017-07-20T23:11:55.694Z,3.80
2017-07-20T23:14:23.249Z,4.20
2017-07-20T23:16:50.801Z,3.90
2017-07-20T23:19:18.330Z,3.43
2017-07-20T23:21:46.648Z,3.40
2017-07-20T23:24:14.214Z,3.63
2017-07-20T23:26:41.774Z,3.27
2017-07-20T23:29:09.306Z,4.10
2017-07-20T23:31:36.839Z,3.40
2017-07-20T23:34:06.086Z,3.60
2017-07-20T23:36:33.654Z,3.63
2017-07-20T23:39:01.214Z,4.30
2017-07-20T23:41:28.745Z,3.90
2017-07-20T23:44:02.282Z,3.83
2017-07-20T23:46:29.848Z,4.33
2017-07-20T23:48:57.402Z,3.70
2017-07-20T23:51:24.960Z,3.80
2017-07-20T23:53:52.490Z,3.70
2017-07-20T23:56:20.018Z,3.97
2017-07-20T23:58:47.647Z,4.30
